createdAt,value
2019-05-18T00:02:03.905Z,49.47
2019-05-18T00:04:55.277Z,49.30
2019-05-18T00:07:46.785Z,48.70
2019-05-18T00:10:39.191Z,49.83
2019-05-18T00:13:30.588Z,47.47
2019-05-18T00:16:22.065Z,52.13
2019-05-18T00:19:13.711Z,51.40
2019-05-18T00:22:05.346Z,49.97
2019-05-18T00:24:56.688Z,51.10
2019-05-18T00:27:48.052Z,48.23
2019-05-18T00:30:39.673Z,50.67
2019-05-18T00:33:32.212Z,49.50
2019-05-18T00:36:24.107Z,50.37
2019-05-18T00:39:16.887Z,52.67
2019-05-18T00:42:08.587Z,51.10
2019-05-18T00:45:01.381Z,51.43
2019-05-18T00:47:53.919Z,51.07
2019-05-18T00:50:45.553Z,49.10
2019-05-18T00:53:37.296Z,51.60
2019-05-18T00:56:29.614Z,51.40
2019-05-18T00:59:21.007Z,52.13
2019-05-18T01:02:13.359Z,52.10
2019-05-18T01:05:04.799Z,53.03
2019-05-18T01:07:56.361Z,50.30
2019-05-18T01:10:48.118Z,50.90
2019-05-18T01:13:39.798Z,48.93
2019-05-18T01:16:31.472Z,51.10
2019-05-18T01:19:23.319Z,50.30
2019-05-18T01:22:15.657Z,49.73
2019-05-18T01:25:08.005Z,50.57
2019-05-18T01:27:59.775Z,54.13
2019-05-18T01:30:51.562Z,51.33
2019-05-18T01:33:43.044Z,50.37
2019-05-18T01:36:34.707Z,51.00
2019-05-18T01:39:26.428Z,51.87
2019-05-18T01:42:18.115Z,50.90
2019-05-18T01:45:16.777Z,50.60
2019-05-18T01:48:13.294Z,52.87
2019-05-18T01:50:55.967Z,50.03
2019-05-18T01:53:47.343Z,51.60
2019-05-18T01:56:38.754Z,51.63
2019-05-18T01:59:30.243Z,51.17
2019-05-18T02:02:22.286Z,52.17
2019-05-18T02:05:13.837Z,50.73
2019-05-18T02:08:06.234Z,52.33
2019-05-18T02:10:57.682Z,51.83
2019-05-18T02:13:50.059Z,50.23
2019-05-18T02:16:41.827Z,49.90
2019-05-18T02:19:33.432Z,49.93
2019-05-18T02:22:26.212Z,51.97
2019-05-18T02:25:18.123Z,48.87
2019-05-18T02:28:09.680Z,46.60
2019-05-18T02:31:01.337Z,48.80
2019-05-18T02:33:53.019Z,47.43
2019-05-18T02:36:44.704Z,49.43
2019-05-18T02:39:36.312Z,49.43
2019-05-18T02:42:30.789Z,49.37
2019-05-18T02:45:21.142Z,49.57
2019-05-18T02:48:12.773Z,47.77
2019-05-18T02:51:04.267Z,49.33
2019-05-18T02:53:56.017Z,49.10
2019-05-18T02:56:47.957Z,48.57
2019-05-18T02:59:39.613Z,49.20
2019-05-18T03:02:31.794Z,46.77
2019-05-18T03:05:24.137Z,47.47
2019-05-18T03:08:16.085Z,47.70
2019-05-18T03:11:07.568Z,48.07
2019-05-18T03:13:59.273Z,46.90
2019-05-18T03:16:51.114Z,46.93
2019-05-18T03:19:42.933Z,47.37
2019-05-18T03:22:34.429Z,48.17
2019-05-18T03:25:25.932Z,48.10
2019-05-18T03:28:17.657Z,45.73
2019-05-18T03:31:09.559Z,46.07
2019-05-18T03:34:00.832Z,46.07
2019-05-18T03:36:52.717Z,47.27
2019-05-18T03:39:44.160Z,44.77
2019-05-18T03:42:36.342Z,46.43
2019-05-18T03:45:27.704Z,43.40
2019-05-18T03:48:19.005Z,44.20
2019-05-18T03:51:10.547Z,45.90
2019-05-18T03:54:01.834Z,45.67
2019-05-18T03:56:53.153Z,43.07
2019-05-18T03:59:44.777Z,44.87
2019-05-18T04:02:36.018Z,45.30
2019-05-18T04:05:27.607Z,44.03
2019-05-18T04:08:19.061Z,44.13
2019-05-18T04:11:10.570Z,45.90
2019-05-18T04:14:02.097Z,46.97
2019-05-18T04:16:58.238Z,44.30
2019-05-18T04:19:50.721Z,43.40
2019-05-18T04:22:42.138Z,43.23
2019-05-18T04:25:33.430Z,43.80
2019-05-18T04:28:24.938Z,42.93
2019-05-18T04:31:16.587Z,44.27
2019-05-18T04:34:07.778Z,43.83
2019-05-18T04:36:59.017Z,46.37
2019-05-18T04:39:50.712Z,44.23
2019-05-18T04:42:42.196Z,46.17
2019-05-18T04:45:34.375Z,44.93
2019-05-18T04:48:25.739Z,43.73
2019-05-18T04:51:17.324Z,44.57
2019-05-18T04:54:08.554Z,44.20
2019-05-18T04:56:59.955Z,43.37
2019-05-18T04:59:51.475Z,44.97
2019-05-18T05:02:43.473Z,43.63
2019-05-18T05:05:35.441Z,45.70
2019-05-18T05:08:27.361Z,43.93
2019-05-18T05:11:18.677Z,43.20
2019-05-18T05:14:11.999Z,43.43
2019-05-18T05:17:03.610Z,41.43
2019-05-18T05:19:54.843Z,43.07
2019-05-18T05:22:46.612Z,41.97
2019-05-18T05:25:38.975Z,43.27
2019-05-18T05:28:30.314Z,43.30
2019-05-18T05:31:21.887Z,44.17
2019-05-18T05:34:13.581Z,42.13
2019-05-18T05:37:05.751Z,42.13
2019-05-18T05:39:57.418Z,42.90
2019-05-18T05:42:49.474Z,41.30
2019-05-18T05:45:41.307Z,41.67
2019-05-18T05:48:32.638Z,40.90
2019-05-18T05:51:24.031Z,40.50
2019-05-18T05:54:15.818Z,40.80
2019-05-18T05:57:07.340Z,41.70
2019-05-18T05:59:58.914Z,41.10
2019-05-18T06:02:51.291Z,41.27
2019-05-18T06:05:43.526Z,42.63
2019-05-18T06:08:34.777Z,41.37
2019-05-18T06:11:26.490Z,41.77
2019-05-18T06:14:19.934Z,43.33
2019-05-18T06:17:11.514Z,41.33
2019-05-18T06:20:03.641Z,41.23
2019-05-18T06:22:54.911Z,41.43
2019-05-18T06:25:46.260Z,42.80
2019-05-18T06:28:37.562Z,43.60
2019-05-18T06:31:29.640Z,42.43
2019-05-18T06:34:20.940Z,41.80
2019-05-18T06:37:12.495Z,42.83
2019-05-18T06:40:04.260Z,42.43
2019-05-18T06:42:55.972Z,41.50
2019-05-18T06:45:47.589Z,41.00
2019-05-18T06:48:39.034Z,42.20
2019-05-18T06:51:30.419Z,40.37
2019-05-18T06:54:21.737Z,41.10
2019-05-18T06:57:14.493Z,41.40
2019-05-18T07:00:07.354Z,38.73
2019-05-18T07:02:58.730Z,36.67
2019-05-18T07:05:50.165Z,36.87
2019-05-18T07:08:42.265Z,38.87
2019-05-18T07:11:33.923Z,40.03
2019-05-18T07:14:26.235Z,39.03
2019-05-18T07:17:17.914Z,38.43
2019-05-18T07:20:09.801Z,37.50
2019-05-18T07:23:02.195Z,36.83
2019-05-18T07:25:53.717Z,36.70
2019-05-18T07:28:45.133Z,39.37
2019-05-18T07:31:36.378Z,38.00
2019-05-18T07:34:28.280Z,37.40
2019-05-18T07:37:19.576Z,36.63
2019-05-18T07:40:12.182Z,37.23
2019-05-18T07:43:04.071Z,37.30
2019-05-18T07:45:55.595Z,37.37
2019-05-18T07:48:47.156Z,38.50
2019-05-18T07:51:38.710Z,40.03
2019-05-18T07:54:30.652Z,39.80
2019-05-18T07:57:22.009Z,39.27
2019-05-18T08:00:13.915Z,39.17
2019-05-18T08:03:05.528Z,39.40
2019-05-18T08:05:57.224Z,40.77
2019-05-18T08:08:48.591Z,40.07
2019-05-18T08:11:39.890Z,39.63
2019-05-18T08:14:31.267Z,37.57
2019-05-18T08:17:22.847Z,37.43
2019-05-18T08:20:15.085Z,42.20
2019-05-18T08:23:06.686Z,38.63
2019-05-18T08:25:58.043Z,38.27
2019-05-18T08:28:49.536Z,41.70
2019-05-18T08:31:41.406Z,41.20
2019-05-18T08:34:33.319Z,41.57
2019-05-18T08:37:24.942Z,39.23
2019-05-18T08:40:17.491Z,40.27
2019-05-18T08:43:08.974Z,38.47
2019-05-18T08:46:00.445Z,42.20
2019-05-18T08:48:52.045Z,41.37
2019-05-18T08:51:43.874Z,41.00
2019-05-18T08:54:36.153Z,41.57
2019-05-18T08:57:27.738Z,42.33
2019-05-18T09:00:20.019Z,41.70
2019-05-18T09:03:11.536Z,41.30
2019-05-18T09:06:04.351Z,42.33
2019-05-18T09:08:55.814Z,44.00
2019-05-18T09:11:47.210Z,41.20
2019-05-18T09:14:38.655Z,42.03
2019-05-18T09:17:30.178Z,41.03
2019-05-18T09:20:21.863Z,41.87
2019-05-18T09:23:13.583Z,40.90
2019-05-18T09:26:05.158Z,42.33
2019-05-18T09:28:56.865Z,41.07
2019-05-18T09:31:49.381Z,42.27
2019-05-18T09:34:40.900Z,42.23
2019-05-18T09:37:32.393Z,41.63
2019-05-18T09:40:24.210Z,41.73
2019-05-18T09:43:15.961Z,42.30
2019-05-18T09:46:08.132Z,43.47
2019-05-18T09:48:59.734Z,40.17
2019-05-18T09:51:51.244Z,42.53
2019-05-18T09:54:43.027Z,41.63
2019-05-18T09:57:34.507Z,41.37
2019-05-18T10:00:26.016Z,42.27
2019-05-18T10:03:17.600Z,41.60
2019-05-18T10:06:09.192Z,41.80
2019-05-18T10:09:00.814Z,40.67
2019-05-18T10:11:52.939Z,39.53
2019-05-18T10:14:44.504Z,41.00
2019-05-18T10:17:36.189Z,43.27
2019-05-18T10:20:28.711Z,40.70
2019-05-18T10:23:20.050Z,39.70
2019-05-18T10:26:13.599Z,42.10
2019-05-18T10:29:05.948Z,39.30
2019-05-18T10:31:58.883Z,40.50
2019-05-18T10:34:50.286Z,39.83
2019-05-18T10:37:41.955Z,39.97
2019-05-18T10:40:33.689Z,40.43
2019-05-18T10:43:25.122Z,41.40
2019-05-18T10:46:16.645Z,41.77
2019-05-18T10:49:08.252Z,41.40
2019-05-18T10:52:00.240Z,41.20
2019-05-18T10:54:52.142Z,39.40
2019-05-18T10:57:43.848Z,39.10
2019-05-18T11:00:35.205Z,41.33
2019-05-18T11:03:26.777Z,37.43
2019-05-18T11:06:18.504Z,38.43
2019-05-18T11:09:10.173Z,37.50
2019-05-18T11:12:01.531Z,35.30
2019-05-18T11:14:53.108Z,33.50
2019-05-18T11:17:45.417Z,33.47
2019-05-18T11:20:36.940Z,31.53
2019-05-18T11:23:41.477Z,33.90
2019-05-18T11:26:21.143Z,34.30
2019-05-18T11:29:12.706Z,35.10
2019-05-18T11:32:04.357Z,36.00
2019-05-18T11:34:56.627Z,34.77
2019-05-18T11:37:48.089Z,32.33
2019-05-18T11:40:39.742Z,32.17
2019-05-18T11:43:31.032Z,34.70
2019-05-18T11:46:22.585Z,29.80
2019-05-18T11:49:14.001Z,31.40
2019-05-18T11:52:05.320Z,24.93
2019-05-18T11:54:57.008Z,27.17
2019-05-18T11:57:48.401Z,28.67
2019-05-18T12:00:39.710Z,27.60
2019-05-18T12:03:31.099Z,26.53
2019-05-18T12:06:22.828Z,25.30
2019-05-18T12:09:14.096Z,24.57
2019-05-18T12:12:05.911Z,22.87
2019-05-18T12:14:57.495Z,19.47
2019-05-18T12:17:48.927Z,25.67
2019-05-18T12:20:40.496Z,26.13
2019-05-18T12:23:31.775Z,24.27
2019-05-18T12:26:23.043Z,22.27
2019-05-18T12:29:14.500Z,26.90
2019-05-18T12:32:05.908Z,25.37
2019-05-18T12:34:57.382Z,27.13
2019-05-18T12:37:49.147Z,29.27
2019-05-18T12:40:40.557Z,29.83
2019-05-18T12:43:32.406Z,31.50
2019-05-18T12:46:24.019Z,31.37
2019-05-18T12:49:15.703Z,28.47
2019-05-18T12:52:07.167Z,27.43
2019-05-18T12:54:58.896Z,29.07
2019-05-18T12:57:50.947Z,28.03
2019-05-18T13:00:42.951Z,28.67
2019-05-18T13:03:34.506Z,30.70
2019-05-18T13:06:27.109Z,30.13
2019-05-18T13:09:18.459Z,31.93
2019-05-18T13:12:11.769Z,29.97
2019-05-18T13:15:03.146Z,29.73
2019-05-18T13:17:54.617Z,27.43
2019-05-18T13:20:46.000Z,27.83
2019-05-18T13:23:37.502Z,28.50
2019-05-18T13:26:29.711Z,27.00
2019-05-18T13:29:21.331Z,26.80
2019-05-18T13:32:12.659Z,27.93
2019-05-18T13:35:04.409Z,28.33
2019-05-18T13:37:56.046Z,25.47
2019-05-18T13:40:47.408Z,28.00
2019-05-18T13:43:38.823Z,29.73
2019-05-18T13:46:30.265Z,28.40
2019-05-18T13:49:21.777Z,27.23
2019-05-18T13:52:13.568Z,24.73
2019-05-18T13:55:05.509Z,22.00
2019-05-18T13:57:57.201Z,23.17
2019-05-18T14:00:49.325Z,25.50
2019-05-18T14:03:41.079Z,25.13
2019-05-18T14:06:32.659Z,25.77
2019-05-18T14:09:24.042Z,26.37
2019-05-18T14:12:15.872Z,26.63
2019-05-18T14:15:08.598Z,26.53
2019-05-18T14:18:00.025Z,24.67
2019-05-18T14:20:51.646Z,25.90
2019-05-18T14:23:43.451Z,26.30
2019-05-18T14:26:35.091Z,23.57
2019-05-18T14:29:27.016Z,22.83
2019-05-18T14:32:18.509Z,22.93
2019-05-18T14:35:10.364Z,21.90
2019-05-18T14:38:01.795Z,27.20
2019-05-18T14:40:53.538Z,23.50
2019-05-18T14:43:44.899Z,22.47
2019-05-18T14:46:36.563Z,28.13
2019-05-18T14:49:27.911Z,27.20
2019-05-18T14:52:19.331Z,26.40
2019-05-18T14:55:11.698Z,24.93
2019-05-18T14:58:03.019Z,24.53
2019-05-18T15:00:54.371Z,25.37
2019-05-18T15:03:45.819Z,24.40
2019-05-18T15:06:37.375Z,23.77
2019-05-18T15:09:29.389Z,23.00
2019-05-18T15:12:21.542Z,23.77
2019-05-18T15:15:14.126Z,23.70
2019-05-18T15:18:05.422Z,25.47
2019-05-18T15:20:57.028Z,25.13
2019-05-18T15:23:48.671Z,25.67
2019-05-18T15:26:41.434Z,24.67
2019-05-18T15:29:33.006Z,24.63
2019-05-18T15:32:24.479Z,23.93
2019-05-18T15:35:16.625Z,24.23
2019-05-18T15:38:08.156Z,35.10
2019-05-18T15:40:59.459Z,41.50
2019-05-18T15:43:51.699Z,40.73
2019-05-18T15:46:43.242Z,40.10
2019-05-18T15:49:34.504Z,43.17
2019-05-18T15:52:25.786Z,42.73
2019-05-18T15:55:17.381Z,43.00
2019-05-18T15:58:08.904Z,43.43
2019-05-18T16:01:00.648Z,42.80
2019-05-18T16:03:51.930Z,41.93
2019-05-18T16:06:44.156Z,40.83
2019-05-18T16:09:36.631Z,42.07
2019-05-18T16:12:28.094Z,42.30
2019-05-18T16:15:19.571Z,45.30
2019-05-18T16:18:11.267Z,44.97
2019-05-18T16:21:03.060Z,43.93
2019-05-18T16:23:54.433Z,42.13
2019-05-18T16:26:45.732Z,42.40
2019-05-18T16:29:37.145Z,43.67
2019-05-18T16:32:28.456Z,44.20
2019-05-18T16:35:19.966Z,43.77
2019-05-18T16:38:11.554Z,42.13
2019-05-18T16:41:02.971Z,43.97
2019-05-18T16:43:54.419Z,44.53
2019-05-18T16:46:45.914Z,43.43
2019-05-18T16:49:37.376Z,42.97
2019-05-18T16:52:28.924Z,41.27
2019-05-18T16:55:20.462Z,42.17
2019-05-18T16:58:11.893Z,43.13
2019-05-18T17:01:03.219Z,42.53
2019-05-18T17:03:54.981Z,43.70
2019-05-18T17:06:46.611Z,43.30
2019-05-18T17:09:37.931Z,43.23
2019-05-18T17:12:30.104Z,43.23
2019-05-18T17:15:22.710Z,42.93
2019-05-18T17:18:14.491Z,40.60
2019-05-18T17:21:06.267Z,41.77
2019-05-18T17:23:57.848Z,42.00
2019-05-18T17:26:53.043Z,42.63
2019-05-18T17:29:42.817Z,40.03
2019-05-18T17:32:34.968Z,40.97
2019-05-18T17:35:26.527Z,40.43
2019-05-18T17:38:17.947Z,37.90
2019-05-18T17:41:09.674Z,39.17
2019-05-18T17:44:01.462Z,40.67
2019-05-18T17:46:52.843Z,38.93
2019-05-18T17:49:44.316Z,39.73
2019-05-18T17:52:36.400Z,40.33
2019-05-18T17:55:28.162Z,39.43
2019-05-18T17:58:19.922Z,41.63
2019-05-18T18:01:11.562Z,40.63
2019-05-18T18:04:03.027Z,41.23
2019-05-18T18:06:54.837Z,41.07
2019-05-18T18:09:46.248Z,40.30
2019-05-18T18:12:37.855Z,40.70
2019-05-18T18:15:29.618Z,38.97
2019-05-18T18:18:21.567Z,36.73
2019-05-18T18:21:13.185Z,38.57
2019-05-18T18:24:05.396Z,38.60
2019-05-18T18:26:56.917Z,37.60
2019-05-18T18:29:49.298Z,37.53
2019-05-18T18:32:40.980Z,40.23
2019-05-18T18:35:33.420Z,39.43
2019-05-18T18:38:25.280Z,36.63
2019-05-18T18:41:16.857Z,36.83
2019-05-18T18:44:09.564Z,34.67
2019-05-18T18:47:01.906Z,30.43
2019-05-18T18:49:54.406Z,32.53
2019-05-18T18:52:46.436Z,32.00
2019-05-18T18:55:38.643Z,32.17
2019-05-18T18:58:30.145Z,33.23
2019-05-18T19:01:21.564Z,32.13
2019-05-18T19:04:12.916Z,31.27
2019-05-18T19:07:04.499Z,33.10
2019-05-18T19:09:56.132Z,33.60
2019-05-18T19:12:47.672Z,31.67
2019-05-18T19:15:39.451Z,34.03
2019-05-18T19:18:31.071Z,33.93
2019-05-18T19:21:23.492Z,35.50
2019-05-18T19:24:15.385Z,36.50
2019-05-18T19:27:06.942Z,37.97
2019-05-18T19:29:58.750Z,37.43
2019-05-18T19:32:50.359Z,37.03
2019-05-18T19:35:42.170Z,37.47
2019-05-18T19:38:33.804Z,37.60
2019-05-18T19:41:25.674Z,36.13
2019-05-18T19:44:17.536Z,36.83
2019-05-18T19:47:09.540Z,38.07
2019-05-18T19:50:01.040Z,40.20
2019-05-18T19:52:55.383Z,41.40
2019-05-18T19:55:47.159Z,41.23
2019-05-18T19:58:38.876Z,40.23
2019-05-18T20:01:30.684Z,39.13
2019-05-18T20:04:22.304Z,39.03
2019-05-18T20:07:14.040Z,38.17
2019-05-18T20:10:06.491Z,39.50
2019-05-18T20:12:57.944Z,39.67
2019-05-18T20:15:49.659Z,39.37
2019-05-18T20:18:41.952Z,39.47
2019-05-18T20:21:33.536Z,41.93
2019-05-18T20:24:25.230Z,39.47
2019-05-18T20:27:16.737Z,41.00
2019-05-18T20:30:09.485Z,40.87
2019-05-18T20:33:01.028Z,41.63
2019-05-18T20:35:52.666Z,40.33
2019-05-18T20:38:44.905Z,42.97
2019-05-18T20:41:36.289Z,44.03
2019-05-18T20:44:27.999Z,41.67
2019-05-18T20:47:20.298Z,44.07
2019-05-18T20:50:12.544Z,44.43
2019-05-18T20:53:04.244Z,43.97
2019-05-18T20:55:55.855Z,45.57
2019-05-18T20:58:47.323Z,44.37
2019-05-18T21:01:38.889Z,45.53
2019-05-18T21:04:30.864Z,44.67
2019-05-18T21:07:22.478Z,46.10
2019-05-18T21:10:14.012Z,46.87
2019-05-18T21:13:05.870Z,46.47
2019-05-18T21:15:57.330Z,45.40
2019-05-18T21:18:50.090Z,45.97
2019-05-18T21:21:42.482Z,46.97
2019-05-18T21:24:34.174Z,45.33
2019-05-18T21:27:26.894Z,42.63
2019-05-18T21:30:18.204Z,46.30
2019-05-18T21:33:09.997Z,46.50
2019-05-18T21:36:01.374Z,44.50
2019-05-18T21:38:54.406Z,45.67
2019-05-18T21:41:45.783Z,45.53
2019-05-18T21:44:37.244Z,47.43
2019-05-18T21:47:28.799Z,44.77
2019-05-18T21:50:20.594Z,45.37
2019-05-18T21:53:12.223Z,46.70
2019-05-18T21:56:04.149Z,46.37
2019-05-18T21:59:10.184Z,47.47
2019-05-18T22:01:48.885Z,46.03
2019-05-18T22:04:40.563Z,45.27
2019-05-18T22:07:32.559Z,45.73
2019-05-18T22:10:26.087Z,47.07
2019-05-18T22:13:17.963Z,45.47
2019-05-18T22:16:10.126Z,49.03
2019-05-18T22:19:02.250Z,47.50
2019-05-18T22:21:53.805Z,46.97
2019-05-18T22:24:45.101Z,48.43
2019-05-18T22:27:36.937Z,48.73
2019-05-18T22:30:28.231Z,46.87
2019-05-18T22:33:19.785Z,48.53
2019-05-18T22:36:11.531Z,49.53
2019-05-18T22:39:05.016Z,46.93
2019-05-18T22:41:56.392Z,49.13
2019-05-18T22:44:47.662Z,47.30
2019-05-18T22:47:39.007Z,50.00
2019-05-18T22:50:30.620Z,49.37
2019-05-18T22:53:22.303Z,50.60
2019-05-18T22:56:13.875Z,50.33
2019-05-18T22:59:05.514Z,50.33
2019-05-18T23:01:57.610Z,49.03
2019-05-18T23:04:49.957Z,49.87
2019-05-18T23:07:42.439Z,48.67
2019-05-18T23:10:33.856Z,47.77
2019-05-18T23:13:25.262Z,49.33
2019-05-18T23:16:16.687Z,49.13
2019-05-18T23:19:08.455Z,49.47
2019-05-18T23:21:59.875Z,50.17
2019-05-18T23:24:52.328Z,48.00
2019-05-18T23:27:44.318Z,48.83
2019-05-18T23:30:36.247Z,48.57
2019-05-18T23:33:27.772Z,48.00
2019-05-18T23:36:19.516Z,48.83
2019-05-18T23:39:11.402Z,47.77
2019-05-18T23:42:02.876Z,47.07
2019-05-18T23:44:54.666Z,47.93
2019-05-18T23:47:46.967Z,48.83
2019-05-18T23:50:38.767Z,47.03
2019-05-18T23:53:30.300Z,46.97
2019-05-18T23:56:22.821Z,45.70
2019-05-18T23:59:14.424Z,47.13
